Time;durP1;ratioP1;P1;durP2;ratioP2;P2;SDS_P1;SDS_P2;PMS_P1;PMS_P2;Temp;Humidity;BMP_temperature;BMP_pressure;BME280_temperature;BME280_humidity;BME280_pressure;Samples;Min_cycle;Max_cycle;Signal;HPM_P1;HPM_P2
2022/06/10 00:00:15;;;;;;;3.40;3.00;;;;;;;;;;4987003;28;20414;-84
2022/06/10 00:02:44;;;;;;;6.57;3.03;;;;;;;;;;4987356;28;20414;-84
2022/06/10 00:05:14;;;;;;;3.10;2.40;;;;;;;;;;4986460;28;20460;-84
2022/06/10 00:07:40;;;;;;;4.03;2.57;;;;;;;;;;4986988;28;20957;-84
2022/06/10 00:10:07;;;;;;;4.43;2.77;;;;;;;;;;4987017;28;20413;-84
2022/06/10 00:12:33;;;;;;;7.23;2.90;;;;;;;;;;4986526;28;20413;-84
2022/06/10 00:14:59;;;;;;;5.07;2.37;;;;;;;;;;4986607;28;20448;-84
2022/06/10 00:17:25;;;;;;;6.10;2.50;;;;;;;;;;4969788;28;20433;-84
2022/06/10 00:19:51;;;;;;;4.43;2.87;;;;;;;;;;4986045;28;20409;-84
2022/06/10 00:22:17;;;;;;;4.63;2.50;;;;;;;;;;4986523;28;20493;-84
2022/06/10 00:24:43;;;;;;;5.90;3.00;;;;;;;;;;4987294;28;20433;-84
2022/06/10 00:27:09;;;;;;;3.30;2.40;;;;;;;;;;4986594;28;20560;-85
2022/06/10 00:29:35;;;;;;;6.43;2.93;;;;;;;;;;4986057;28;20406;-85
2022/06/10 00:32:01;;;;;;;5.83;2.40;;;;;;;;;;4989944;28;20555;-84
2022/06/10 00:34:27;;;;;;;3.00;2.67;;;;;;;;;;4985519;28;20421;-85
2022/06/10 00:36:53;;;;;;;6.50;2.50;;;;;;;;;;4986866;28;20476;-85
2022/06/10 00:39:19;;;;;;;6.67;2.93;;;;;;;;;;4985492;28;20401;-84
2022/06/10 00:41:45;;;;;;;8.10;2.60;;;;;;;;;;4967840;28;20448;-85
2022/06/10 00:44:30;;;;;;;5.20;2.60;;;;;;;;;;4967294;28;20409;-85
2022/06/10 00:46:56;;;;;;;5.03;2.93;;;;;;;;;;4984597;28;20484;-85
2022/06/10 00:49:25;;;;;;;5.80;2.80;;;;;;;;;;4986357;28;20417;-84
2022/06/10 00:51:54;;;;;;;5.57;2.13;;;;;;;;;;4989032;28;20441;-85
2022/06/10 00:54:29;;;;;;;4.20;2.30;;;;;;;;;;4992740;28;20489;-85
2022/06/10 00:57:03;;;;;;;7.27;2.57;;;;;;;;;;4990882;28;20492;-84
2022/06/10 00:59:33;;;;;;;5.30;2.90;;;;;;;;;;4986179;28;20408;-84
2022/06/10 01:02:01;;;;;;;4.00;2.40;;;;;;;;;;4985557;28;20948;-84
2022/06/10 01:04:27;;;;;;;6.47;2.33;;;;;;;;;;4973549;28;20437;-85
2022/06/10 01:06:53;;;;;;;5.83;2.90;;;;;;;;;;4988683;28;20487;-84
2022/06/10 01:09:19;;;;;;;4.97;2.70;;;;;;;;;;4987438;28;20476;-84
2022/06/10 01:11:53;;;;;;;3.63;2.70;;;;;;;;;;4972084;28;20406;-84
2022/06/10 01:14:46;;;;;;;4.60;2.70;;;;;;;;;;4989454;28;20386;-84
2022/06/10 01:17:21;;;;;;;2.73;2.40;;;;;;;;;;4988434;28;20417;-84
2022/06/10 01:20:02;;;;;;;6.03;3.57;;;;;;;;;;4987795;28;20385;-84
2022/06/10 01:22:34;;;;;;;4.00;2.70;;;;;;;;;;4983940;28;20440;-84
2022/06/10 01:25:00;;;;;;;5.80;2.43;;;;;;;;;;4988313;28;20437;-84
2022/06/10 01:27:48;;;;;;;7.40;3.10;;;;;;;;;;4988994;28;20563;-84
2022/06/10 01:30:23;;;;;;;3.67;2.60;;;;;;;;;;4989462;28;20389;-85
2022/06/10 01:33:08;;;;;;;4.37;2.80;;;;;;;;;;4970552;28;20413;-83
2022/06/10 01:35:37;;;;;;;3.57;2.30;;;;;;;;;;4987383;28;20425;-84
2022/06/10 01:38:03;;;;;;;6.37;2.57;;;;;;;;;;4972173;28;20412;-84
2022/06/10 01:40:36;;;;;;;5.97;2.30;;;;;;;;;;4986731;28;20440;-84
2022/06/10 01:43:10;;;;;;;5.80;2.67;;;;;;;;;;4986644;28;20402;-83
2022/06/10 01:45:44;;;;;;;7.10;2.40;;;;;;;;;;4984249;28;20428;-83
2022/06/10 01:48:26;;;;;;;3.00;2.10;;;;;;;;;;4968433;28;20483;-84
2022/06/10 01:51:17;;;;;;;3.73;3.00;;;;;;;;;;4986281;28;20440;-84
2022/06/10 01:53:48;;;;;;;3.90;2.70;;;;;;;;;;4968933;28;20429;-84
2022/06/10 01:56:18;;;;;;;5.60;3.10;;;;;;;;;;4984450;28;20540;-84
2022/06/10 01:58:50;;;;;;;3.57;2.83;;;;;;;;;;4987017;28;20515;-85
2022/06/10 02:01:21;;;;;;;2.83;2.53;;;;;;;;;;4987776;28;20389;-85
2022/06/10 02:03:54;;;;;;;3.47;2.63;;;;;;;;;;4985804;28;20460;-86
2022/06/10 02:06:26;;;;;;;4.57;2.80;;;;;;;;;;4988798;28;20435;-85
2022/06/10 02:08:57;;;;;;;3.70;2.67;;;;;;;;;;4987433;28;20456;-85
2022/06/10 02:11:26;;;;;;;4.43;2.50;;;;;;;;;;4988600;28;20448;-85
2022/06/10 02:13:55;;;;;;;4.80;2.63;;;;;;;;;;4989973;28;20436;-85
2022/06/10 02:16:25;;;;;;;4.47;2.60;;;;;;;;;;4988980;28;20949;-85
2022/06/10 02:19:12;;;;;;;8.37;3.40;;;;;;;;;;4987114;28;20390;-85
2022/06/10 02:21:46;;;;;;;3.77;3.20;;;;;;;;;;4971365;28;20444;-85
2022/06/10 02:24:18;;;;;;;3.00;2.17;;;;;;;;;;4988047;28;20405;-85
2022/06/10 02:26:46;;;;;;;4.30;2.40;;;;;;;;;;4970505;28;20424;-85
2022/06/10 02:29:15;;;;;;;4.70;2.37;;;;;;;;;;4988693;28;20409;-85
2022/06/10 02:31:44;;;;;;;8.37;2.60;;;;;;;;;;4988221;28;20409;-85
2022/06/10 02:34:12;;;;;;;4.00;2.27;;;;;;;;;;4987910;28;20405;-85
2022/06/10 02:36:58;;;;;;;3.70;2.33;;;;;;;;;;4988423;28;20430;-85
2022/06/10 02:39:24;;;;;;;6.97;2.90;;;;;;;;;;4988151;28;20482;-85
2022/06/10 02:41:59;;;;;;;8.33;3.33;;;;;;;;;;4988172;28;20495;-85
2022/06/10 02:44:28;;;;;;;3.83;2.67;;;;;;;;;;4988949;28;20421;-85
2022/06/10 02:46:57;;;;;;;5.60;2.57;;;;;;;;;;4988890;28;20412;-85
2022/06/10 02:49:23;;;;;;;2.93;2.30;;;;;;;;;;4988560;28;20912;-85
2022/06/10 02:51:49;;;;;;;6.30;2.90;;;;;;;;;;4988298;28;20886;-85
2022/06/10 02:54:18;;;;;;;6.00;2.60;;;;;;;;;;4988836;28;20429;-85
2022/06/10 02:56:44;;;;;;;4.30;2.47;;;;;;;;;;4971138;28;20839;-85
2022/06/10 03:02:03;;;;;;;6.47;2.57;;;;;;;;;;4969099;28;20878;-85
2022/06/10 03:04:48;;;;;;;2.83;2.47;;;;;;;;;;4969040;29;20422;-85
2022/06/10 03:07:14;;;;;;;6.03;4.13;;;;;;;;;;4968978;29;20456;-85
2022/06/10 03:10:02;;;;;;;2.90;2.40;;;;;;;;;;4969263;29;20810;-85
2022/06/10 03:12:28;;;;;;;3.47;2.43;;;;;;;;;;4969321;29;20395;-85
2022/06/10 03:15:13;;;;;;;3.80;2.60;;;;;;;;;;4968866;28;20936;-85
2022/06/10 03:17:42;;;;;;;2.63;1.90;;;;;;;;;;4968326;29;20480;-85
2022/06/10 03:20:27;;;;;;;2.40;2.20;;;;;;;;;;4969424;29;20398;-85
2022/06/10 03:22:59;;;;;;;3.77;2.10;;;;;;;;;;4969082;29;20494;-85
2022/06/10 03:25:27;;;;;;;6.40;2.27;;;;;;;;;;4968420;29;20907;-85
2022/06/10 03:27:53;;;;;;;4.47;2.47;;;;;;;;;;4969037;29;20457;-85
2022/06/10 03:30:21;;;;;;;11.13;4.00;;;;;;;;;;4969355;29;20394;-85
2022/06/10 03:33:06;;;;;;;4.47;2.40;;;;;;;;;;4951326;29;20415;-85
2022/06/10 03:35:33;;;;;;;3.30;2.30;;;;;;;;;;4973328;28;20445;-85
2022/06/10 03:38:02;;;;;;;5.47;2.77;;;;;;;;;;4987949;28;20492;-85
2022/06/10 03:40:29;;;;;;;4.40;2.20;;;;;;;;;;4987789;28;20405;-86
2022/06/10 03:42:56;;;;;;;5.10;2.70;;;;;;;;;;4988497;28;20401;-86
2022/06/10 03:45:24;;;;;;;3.93;1.97;;;;;;;;;;4988204;28;20428;-85
2022/06/10 03:47:50;;;;;;;4.13;2.90;;;;;;;;;;4988256;28;20476;-85
2022/06/10 03:50:18;;;;;;;3.80;2.40;;;;;;;;;;4988446;28;20473;-85
2022/06/10 03:52:45;;;;;;;10.13;2.77;;;;;;;;;;4988202;28;20417;-85
2022/06/10 03:55:14;;;;;;;5.10;2.50;;;;;;;;;;4987752;28;20437;-85
2022/06/10 03:57:40;;;;;;;2.60;2.30;;;;;;;;;;4987790;28;20449;-85
2022/06/10 04:00:07;;;;;;;4.63;3.33;;;;;;;;;;4988122;28;20409;-85
2022/06/10 04:02:33;;;;;;;2.37;2.10;;;;;;;;;;4987498;28;20416;-85
2022/06/10 04:04:59;;;;;;;4.20;2.10;;;;;;;;;;4984713;28;20945;-85
2022/06/10 04:07:25;;;;;;;5.00;2.50;;;;;;;;;;4984386;28;20455;-85
2022/06/10 04:09:51;;;;;;;4.23;3.00;;;;;;;;;;4978206;28;20409;-84
2022/06/10 04:12:17;;;;;;;2.63;1.90;;;;;;;;;;4976308;28;20500;-84
2022/06/10 04:14:43;;;;;;;2.67;2.17;;;;;;;;;;4976241;28;20887;-85
2022/06/10 04:17:10;;;;;;;7.47;2.13;;;;;;;;;;4983573;28;20893;-83
2022/06/10 04:19:36;;;;;;;5.67;2.20;;;;;;;;;;4983729;28;20413;-85
2022/06/10 04:22:03;;;;;;;2.30;1.83;;;;;;;;;;4986506;28;20441;-85
2022/06/10 04:24:30;;;;;;;2.77;2.20;;;;;;;;;;4987502;28;20416;-85
2022/06/10 04:26:56;;;;;;;2.53;1.93;;;;;;;;;;4988688;28;20401;-85
2022/06/10 04:29:22;;;;;;;3.77;2.13;;;;;;;;;;4974015;28;20456;-85
2022/06/10 04:31:48;;;;;;;3.70;1.93;;;;;;;;;;4991236;28;20401;-85
2022/06/10 04:34:15;;;;;;;6.10;2.10;;;;;;;;;;4991317;28;20532;-85
2022/06/10 04:36:41;;;;;;;2.70;2.10;;;;;;;;;;4990534;28;20415;-85
2022/06/10 04:39:07;;;;;;;2.73;2.00;;;;;;;;;;4973543;28;20408;-85
2022/06/10 04:41:33;;;;;;;8.87;2.60;;;;;;;;;;4991640;28;20401;-85
2022/06/10 04:43:59;;;;;;;4.60;1.77;;;;;;;;;;4991434;28;20416;-85
2022/06/10 04:46:27;;;;;;;4.13;2.30;;;;;;;;;;4990985;28;20424;-85
2022/06/10 04:48:53;;;;;;;3.90;2.30;;;;;;;;;;4990836;28;20968;-85
2022/06/10 04:51:19;;;;;;;7.63;2.97;;;;;;;;;;4974082;28;20485;-85
2022/06/10 04:53:45;;;;;;;3.97;2.27;;;;;;;;;;4990783;28;20448;-85
2022/06/10 04:56:11;;;;;;;7.13;2.97;;;;;;;;;;5024997;23;20950;-88
2022/06/10 04:58:37;;;;;;;6.90;2.77;;;;;;;;;;5004396;28;20407;-88
2022/06/10 05:01:03;;;;;;;2.90;2.40;;;;;;;;;;5004733;28;20414;-88
2022/06/10 05:03:29;;;;;;;6.20;2.57;;;;;;;;;;5023749;28;20486;-87
2022/06/10 05:05:55;;;;;;;4.43;2.20;;;;;;;;;;5022415;28;20431;-87
2022/06/10 05:08:21;;;;;;;3.57;2.47;;;;;;;;;;5005623;28;20959;-87
2022/06/10 05:10:47;;;;;;;5.57;2.30;;;;;;;;;;5016116;28;20526;-87
2022/06/10 05:13:16;;;;;;;6.50;3.07;;;;;;;;;;5006765;28;20415;-87
2022/06/10 05:15:42;;;;;;;5.93;2.67;;;;;;;;;;5005955;28;20466;-88
2022/06/10 05:18:08;;;;;;;5.73;3.40;;;;;;;;;;5005160;28;20412;-87
2022/06/10 05:20:40;;;;;;;3.13;2.30;;;;;;;;;;5023454;28;20392;-87
2022/06/10 05:23:07;;;;;;;3.47;2.67;;;;;;;;;;5005697;28;20471;-85
2022/06/10 05:25:33;;;;;;;5.73;3.00;;;;;;;;;;5022530;28;20430;-86
2022/06/10 05:28:00;;;;;;;8.10;2.20;;;;;;;;;;5026861;28;20466;-87
2022/06/10 05:30:27;;;;;;;5.10;2.77;;;;;;;;;;5007414;28;20408;-86
2022/06/10 05:32:53;;;;;;;5.33;2.80;;;;;;;;;;5024681;28;20412;-86
2022/06/10 05:35:19;;;;;;;3.70;2.00;;;;;;;;;;5005244;28;20418;-88
2022/06/10 05:37:47;;;;;;;7.40;2.40;;;;;;;;;;5005950;28;20413;-87
2022/06/10 05:40:13;;;;;;;4.03;2.17;;;;;;;;;;5006068;28;20933;-88
2022/06/10 05:42:40;;;;;;;4.57;2.10;;;;;;;;;;5005915;28;20423;-87
2022/06/10 05:45:06;;;;;;;3.73;3.00;;;;;;;;;;5009041;28;20562;-88
2022/06/10 05:47:34;;;;;;;3.60;1.97;;;;;;;;;;5030291;28;20852;-88
2022/06/10 05:50:01;;;;;;;4.40;2.30;;;;;;;;;;5026201;28;20387;-88
2022/06/10 05:52:28;;;;;;;5.90;2.40;;;;;;;;;;5025032;28;20404;-88
2022/06/10 05:54:56;;;;;;;4.47;2.73;;;;;;;;;;5006590;28;20407;-87
2022/06/10 05:57:22;;;;;;;3.90;2.50;;;;;;;;;;5023558;28;20485;-87
2022/06/10 05:59:49;;;;;;;5.33;2.50;;;;;;;;;;5005978;28;20486;-88
2022/06/10 06:02:16;;;;;;;4.07;1.87;;;;;;;;;;5032497;28;20403;-87
2022/06/10 06:04:42;;;;;;;19.80;2.70;;;;;;;;;;5010441;28;20403;-88
2022/06/10 06:07:08;;;;;;;4.00;2.80;;;;;;;;;;5023714;28;20455;-87
2022/06/10 06:09:35;;;;;;;3.50;2.60;;;;;;;;;;5023233;28;20407;-86
2022/06/10 06:12:01;;;;;;;3.67;2.50;;;;;;;;;;5023041;28;20407;-88
2022/06/10 06:14:28;;;;;;;5.60;2.70;;;;;;;;;;5004307;28;20545;-88
2022/06/10 06:16:59;;;;;;;5.23;2.87;;;;;;;;;;5022978;28;20427;-86
2022/06/10 06:19:26;;;;;;;6.13;2.70;;;;;;;;;;5022468;28;20424;-88
2022/06/10 06:21:52;;;;;;;3.33;2.17;;;;;;;;;;5004484;28;20430;-88
2022/06/10 06:24:18;;;;;;;4.60;2.40;;;;;;;;;;5022026;28;20395;-86
2022/06/10 06:26:44;;;;;;;6.60;3.03;;;;;;;;;;5021623;28;20450;-88
2022/06/10 06:29:10;;;;;;;3.47;2.43;;;;;;;;;;5004196;28;20414;-88
2022/06/10 06:31:36;;;;;;;6.53;2.50;;;;;;;;;;5021428;28;20414;-86
2022/06/10 06:34:03;;;;;;;4.87;2.60;;;;;;;;;;5004331;28;20411;-88
2022/06/10 06:36:39;;;;;;;4.83;2.53;;;;;;;;;;5020858;28;21023;-86
2022/06/10 06:39:06;;;;;;;5.87;2.70;;;;;;;;;;5001259;28;20446;-85
2022/06/10 06:41:32;;;;;;;3.53;2.30;;;;;;;;;;4999806;28;20486;-85
2022/06/10 06:43:59;;;;;;;2.47;2.03;;;;;;;;;;5018398;28;20454;-86
2022/06/10 06:46:25;;;;;;;5.03;2.93;;;;;;;;;;5018144;28;20471;-86
2022/06/10 06:48:54;;;;;;;8.23;2.40;;;;;;;;;;5018616;28;21016;-88
2022/06/10 06:51:20;;;;;;;5.70;2.90;;;;;;;;;;5018453;28;20403;-87
2022/06/10 06:53:46;;;;;;;4.53;2.80;;;;;;;;;;5001515;28;20466;-86
2022/06/10 06:56:12;;;;;;;6.60;2.80;;;;;;;;;;5002235;28;20438;-87
2022/06/10 06:58:38;;;;;;;6.83;3.00;;;;;;;;;;5021411;28;20438;-87
2022/06/10 07:01:04;;;;;;;6.57;3.03;;;;;;;;;;5022146;28;20396;-87
2022/06/10 07:03:30;;;;;;;6.20;2.90;;;;;;;;;;5007520;28;20407;-87
2022/06/10 07:05:57;;;;;;;8.20;3.47;;;;;;;;;;5008226;28;20442;-86
2022/06/10 07:08:30;;;;;;;4.43;2.90;;;;;;;;;;5027190;28;20466;-87
2022/06/10 07:10:57;;;;;;;8.70;3.80;;;;;;;;;;5023693;28;20504;-87
2022/06/10 07:13:23;;;;;;;5.97;3.57;;;;;;;;;;5023304;28;20411;-87
2022/06/10 07:15:49;;;;;;;4.43;2.47;;;;;;;;;;5023044;28;20431;-88
2022/06/10 07:18:15;;;;;;;4.80;3.10;;;;;;;;;;5023610;28;20502;-87
2022/06/10 07:20:41;;;;;;;11.00;3.53;;;;;;;;;;5019929;28;20439;-86
2022/06/10 07:23:07;;;;;;;6.10;3.03;;;;;;;;;;5021661;28;20454;-85
2022/06/10 07:25:34;;;;;;;4.60;3.13;;;;;;;;;;5005357;28;20435;-87
2022/06/10 07:28:00;;;;;;;9.70;3.20;;;;;;;;;;5038173;28;20451;-87
2022/06/10 07:30:27;;;;;;;8.27;2.80;;;;;;;;;;5031731;28;20423;-87
2022/06/10 07:32:53;;;;;;;5.67;2.70;;;;;;;;;;5024613;28;20749;-87
2022/06/10 07:35:21;;;;;;;4.37;2.70;;;;;;;;;;5004056;28;20423;-85
2022/06/10 07:37:48;;;;;;;4.17;2.93;;;;;;;;;;5004318;28;20779;-87
2022/06/10 07:43:03;;;;;;;5.70;3.70;;;;;;;;;;5020925;28;20391;-86
2022/06/10 07:45:29;;;;;;;4.93;3.03;;;;;;;;;;5020902;28;20427;-86
2022/06/10 07:47:55;;;;;;;10.20;5.57;;;;;;;;;;5002634;28;20833;-87
2022/06/10 07:50:23;;;;;;;6.60;3.90;;;;;;;;;;5021493;28;20403;-87
2022/06/10 07:52:49;;;;;;;6.80;3.50;;;;;;;;;;5020625;28;20769;-87
2022/06/10 07:55:16;;;;;;;6.20;3.87;;;;;;;;;;5003118;28;20451;-85
2022/06/10 07:57:42;;;;;;;6.07;2.87;;;;;;;;;;5021302;28;20499;-87
2022/06/10 08:00:10;;;;;;;4.87;3.10;;;;;;;;;;5003006;28;20459;-87
2022/06/10 08:02:37;;;;;;;5.73;3.00;;;;;;;;;;5007023;28;20795;-86
2022/06/10 08:05:03;;;;;;;6.37;3.63;;;;;;;;;;5006091;28;20478;-87
2022/06/10 08:07:29;;;;;;;3.70;3.40;;;;;;;;;;5024458;28;20482;-87
2022/06/10 08:09:55;;;;;;;4.80;3.67;;;;;;;;;;5006439;28;20422;-87
2022/06/10 08:12:21;;;;;;;8.50;3.53;;;;;;;;;;5006554;28;20454;-87
2022/06/10 08:14:47;;;;;;;3.73;3.33;;;;;;;;;;5024535;28;20422;-87
2022/06/10 08:17:14;;;;;;;8.90;3.30;;;;;;;;;;5006963;28;20446;-87
2022/06/10 08:19:40;;;;;;;6.63;3.40;;;;;;;;;;5027134;28;20422;-86
2022/06/10 08:24:51;;;;;;;6.33;3.87;;;;;;;;;;5024418;28;20833;-85
2022/06/10 08:27:18;;;;;;;6.20;3.97;;;;;;;;;;5023745;28;20466;-87
2022/06/10 08:29:44;;;;;;;4.87;4.37;;;;;;;;;;5005738;28;20442;-87
2022/06/10 08:32:10;;;;;;;8.30;3.97;;;;;;;;;;5023691;28;20422;-86
2022/06/10 08:34:41;;;;;;;6.10;3.60;;;;;;;;;;5023902;28;20431;-86
2022/06/10 08:37:08;;;;;;;5.63;2.90;;;;;;;;;;5007204;28;20438;-86
2022/06/10 08:39:34;;;;;;;5.13;3.30;;;;;;;;;;5003830;28;20412;-86
2022/06/10 08:42:08;;;;;;;5.27;3.50;;;;;;;;;;5004533;28;20408;-86
2022/06/10 08:44:44;;;;;;;6.93;3.67;;;;;;;;;;5003370;28;20404;-87
2022/06/10 08:47:29;;;;;;;7.10;3.60;;;;;;;;;;5020200;28;20466;-86
2022/06/10 08:50:13;;;;;;;5.90;3.70;;;;;;;;;;5023082;28;20457;-85
2022/06/10 08:52:47;;;;;;;5.90;3.37;;;;;;;;;;5005449;28;20767;-87
2022/06/10 08:55:16;;;;;;;7.73;4.30;;;;;;;;;;5005655;28;20431;-84
2022/06/10 08:57:44;;;;;;;5.80;3.30;;;;;;;;;;5006282;28;20464;-86
2022/06/10 09:00:13;;;;;;;5.60;3.50;;;;;;;;;;5005422;28;20415;-87
2022/06/10 09:02:42;;;;;;;7.23;3.87;;;;;;;;;;5023042;28;20423;-86
2022/06/10 09:05:16;;;;;;;6.70;3.40;;;;;;;;;;5005577;28;20454;-85
2022/06/10 09:07:44;;;;;;;6.10;4.10;;;;;;;;;;5023311;28;20455;-86
2022/06/10 09:10:25;;;;;;;8.47;3.27;;;;;;;;;;5005477;28;20411;-84
2022/06/10 09:12:51;;;;;;;8.50;3.60;;;;;;;;;;5005097;28;20423;-86
2022/06/10 09:15:19;;;;;;;4.60;3.63;;;;;;;;;;5022412;28;20469;-85
2022/06/10 09:17:52;;;;;;;7.80;3.40;;;;;;;;;;5022749;28;20499;-88
2022/06/10 09:20:26;;;;;;;4.20;3.50;;;;;;;;;;5024334;28;20812;-86
2022/06/10 09:22:57;;;;;;;8.13;4.17;;;;;;;;;;5005764;28;20434;-85
2022/06/10 09:25:23;;;;;;;8.40;3.60;;;;;;;;;;5005918;28;20447;-85
2022/06/10 09:27:51;;;;;;;7.73;4.03;;;;;;;;;;5011365;28;20489;-88
2022/06/10 09:30:19;;;;;;;3.97;3.40;;;;;;;;;;5024854;28;20403;-86
2022/06/10 09:32:48;;;;;;;4.43;3.77;;;;;;;;;;5023332;28;20416;-87
2022/06/10 09:35:25;;;;;;;6.00;3.47;;;;;;;;;;5023465;28;20415;-86
2022/06/10 09:37:53;;;;;;;4.87;3.33;;;;;;;;;;5032838;28;20410;-87
2022/06/10 09:40:36;;;;;;;7.00;3.43;;;;;;;;;;5036604;28;20419;-87
2022/06/10 09:43:09;;;;;;;5.20;3.30;;;;;;;;;;4990382;28;20420;-87
2022/06/10 09:45:47;;;;;;;3.87;3.30;;;;;;;;;;5009298;28;20438;-87
2022/06/10 09:48:28;;;;;;;4.33;3.23;;;;;;;;;;5024264;28;20450;-86
2022/06/10 09:50:54;;;;;;;6.50;3.50;;;;;;;;;;5007721;28;20506;-88
2022/06/10 09:53:29;;;;;;;5.73;3.73;;;;;;;;;;5007346;28;20443;-87
2022/06/10 09:56:04;;;;;;;5.93;3.17;;;;;;;;;;5024744;28;20506;-88
2022/06/10 09:58:33;;;;;;;10.20;2.70;;;;;;;;;;5006731;28;20419;-87
2022/06/10 10:01:05;;;;;;;4.43;3.47;;;;;;;;;;5007187;28;20415;-88
2022/06/10 10:03:34;;;;;;;6.90;3.40;;;;;;;;;;5005842;28;20790;-85
2022/06/10 10:06:06;;;;;;;8.63;3.63;;;;;;;;;;5004363;28;20806;-87
2022/06/10 10:08:32;;;;;;;4.30;2.90;;;;;;;;;;5022152;28;20598;-87
2022/06/10 10:11:07;;;;;;;5.40;3.30;;;;;;;;;;5021923;28;20439;-88
2022/06/10 10:13:42;;;;;;;5.43;2.93;;;;;;;;;;5023262;28;20498;-88
2022/06/10 10:16:11;;;;;;;6.33;3.93;;;;;;;;;;5021325;28;20438;-84
2022/06/10 10:18:56;;;;;;;4.33;3.47;;;;;;;;;;5023744;28;20430;-86
2022/06/10 10:21:34;;;;;;;5.17;2.93;;;;;;;;;;5008176;28;20498;-86
2022/06/10 10:24:00;;;;;;;4.80;3.20;;;;;;;;;;5027557;28;20473;-85
2022/06/10 10:26:26;;;;;;;7.03;2.90;;;;;;;;;;5027220;28;20443;-86
2022/06/10 10:28:56;;;;;;;3.00;2.33;;;;;;;;;;5028511;28;20459;-86
2022/06/10 10:31:23;;;;;;;5.73;2.57;;;;;;;;;;5012245;28;20396;-87
2022/06/10 10:33:50;;;;;;;4.47;2.77;;;;;;;;;;5002568;28;20407;-85
2022/06/10 10:36:22;;;;;;;5.83;4.00;;;;;;;;;;5020732;28;20450;-85
2022/06/10 10:38:50;;;;;;;7.40;4.47;;;;;;;;;;5004121;28;20416;-84
2022/06/10 10:41:35;;;;;;;4.63;3.30;;;;;;;;;;5020739;28;20415;-86
2022/06/10 10:44:04;;;;;;;5.80;3.77;;;;;;;;;;5032381;28;20814;-86
2022/06/10 10:46:35;;;;;;;3.97;3.07;;;;;;;;;;5027822;28;20431;-85
2022/06/10 10:49:14;;;;;;;4.73;3.20;;;;;;;;;;5027201;28;20454;-86
2022/06/10 10:51:40;;;;;;;4.90;3.10;;;;;;;;;;5008497;28;20430;-87
2022/06/10 10:54:15;;;;;;;5.73;3.30;;;;;;;;;;5026601;28;20419;-86
2022/06/10 10:56:43;;;;;;;4.20;3.53;;;;;;;;;;5026683;28;20477;-86
2022/06/10 10:59:29;;;;;;;9.47;3.13;;;;;;;;;;5007436;28;20454;-87
2022/06/10 11:01:56;;;;;;;5.77;2.87;;;;;;;;;;5025482;28;20791;-86
2022/06/10 11:04:30;;;;;;;11.43;4.13;;;;;;;;;;5017799;23;20423;-86
2022/06/10 11:07:04;;;;;;;4.90;3.80;;;;;;;;;;4947136;28;20434;-85
2022/06/10 11:09:31;;;;;;;6.30;3.07;;;;;;;;;;4953773;28;20425;-84
2022/06/10 11:11:57;;;;;;;3.90;2.90;;;;;;;;;;4963790;28;20500;-84
2022/06/10 11:14:31;;;;;;;3.90;3.10;;;;;;;;;;4982155;28;20740;-83
2022/06/10 11:17:12;;;;;;;4.33;3.17;;;;;;;;;;4969833;28;20509;-83
2022/06/10 11:19:41;;;;;;;4.67;2.90;;;;;;;;;;4957712;29;20911;-83
2022/06/10 11:22:09;;;;;;;5.83;3.20;;;;;;;;;;4948324;28;20417;-83
2022/06/10 11:24:43;;;;;;;5.80;3.17;;;;;;;;;;4967868;28;20425;-83
2022/06/10 11:27:20;;;;;;;4.50;3.17;;;;;;;;;;4974430;28;20437;-83
2022/06/10 11:29:57;;;;;;;5.07;3.57;;;;;;;;;;4970576;28;20484;-84
2022/06/10 11:32:25;;;;;;;6.80;3.23;;;;;;;;;;4947819;29;20417;-85
2022/06/10 11:35:00;;;;;;;8.33;3.33;;;;;;;;;;4961231;28;20449;-82
2022/06/10 11:37:37;;;;;;;12.03;3.10;;;;;;;;;;4972936;28;20421;-86
2022/06/10 11:40:14;;;;;;;8.20;3.30;;;;;;;;;;4963842;28;20506;-83
2022/06/10 11:42:51;;;;;;;3.93;2.80;;;;;;;;;;4971164;28;20920;-86
2022/06/10 11:45:23;;;;;;;6.70;3.23;;;;;;;;;;4977244;28;20939;-85
2022/06/10 11:47:52;;;;;;;6.17;3.33;;;;;;;;;;4976300;28;20452;-85
2022/06/10 11:50:35;;;;;;;5.47;4.30;;;;;;;;;;4978141;28;20512;-83
2022/06/10 11:53:21;;;;;;;4.30;3.03;;;;;;;;;;4953458;28;20475;-86
2022/06/10 11:55:50;;;;;;;4.50;2.60;;;;;;;;;;4968751;28;20436;-85
2022/06/10 12:01:20;;;;;;;4.03;2.73;;;;;;;;;;4976030;28;20433;-85
2022/06/10 12:03:49;;;;;;;4.90;2.73;;;;;;;;;;4961230;28;20780;-84
2022/06/10 12:06:18;;;;;;;5.73;3.70;;;;;;;;;;4942566;28;20442;-84
2022/06/10 12:08:47;;;;;;;11.83;2.90;;;;;;;;;;4968407;28;20520;-86
2022/06/10 12:11:28;;;;;;;5.70;3.83;;;;;;;;;;4958771;28;20418;-86
2022/06/10 12:14:01;;;;;;;4.63;2.60;;;;;;;;;;4966401;28;20416;-85
2022/06/10 12:16:27;;;;;;;5.13;3.13;;;;;;;;;;4977507;28;20429;-84
2022/06/10 12:18:53;;;;;;;3.83;2.87;;;;;;;;;;4975576;28;20436;-84
2022/06/10 12:21:21;;;;;;;4.00;2.63;;;;;;;;;;4977263;28;20441;-84
2022/06/10 12:23:47;;;;;;;3.47;2.53;;;;;;;;;;4959906;28;20786;-84
2022/06/10 12:26:32;;;;;;;4.00;3.00;;;;;;;;;;4977503;28;20444;-84
2022/06/10 12:29:04;;;;;;;4.20;2.47;;;;;;;;;;4976544;28;20488;-84
2022/06/10 12:31:52;;;;;;;6.70;2.80;;;;;;;;;;4977026;28;20409;-84
2022/06/10 12:34:24;;;;;;;4.53;2.90;;;;;;;;;;4977311;28;20742;-84
2022/06/10 12:36:53;;;;;;;5.63;2.60;;;;;;;;;;4959459;28;20421;-84
2022/06/10 12:39:26;;;;;;;5.00;3.00;;;;;;;;;;4977072;28;20401;-84
2022/06/10 12:41:56;;;;;;;5.10;2.83;;;;;;;;;;4977256;28;20389;-84
2022/06/10 12:44:26;;;;;;;3.13;2.70;;;;;;;;;;4977322;28;20402;-84
2022/06/10 12:47:03;;;;;;;4.77;2.60;;;;;;;;;;4977055;28;20452;-85
2022/06/10 12:49:52;;;;;;;4.33;2.47;;;;;;;;;;4980318;28;20396;-84
2022/06/10 12:52:45;;;;;;;3.80;2.67;;;;;;;;;;4980149;28;20480;-84
2022/06/10 12:55:25;;;;;;;5.93;2.53;;;;;;;;;;4963910;28;20421;-84
2022/06/10 12:57:53;;;;;;;6.63;2.57;;;;;;;;;;4981038;28;20388;-84
2022/06/10 13:00:19;;;;;;;3.63;2.70;;;;;;;;;;4980374;28;20405;-85
2022/06/10 13:02:46;;;;;;;3.73;2.60;;;;;;;;;;4962928;28;20417;-84
2022/06/10 13:05:20;;;;;;;3.57;2.10;;;;;;;;;;4979789;28;20938;-84
2022/06/10 13:07:47;;;;;;;2.77;2.07;;;;;;;;;;4980463;28;20460;-84
2022/06/10 13:10:29;;;;;;;4.07;2.23;;;;;;;;;;4977372;28;20528;-84
2022/06/10 13:12:59;;;;;;;4.40;2.90;;;;;;;;;;4965023;28;20422;-84
2022/06/10 13:15:29;;;;;;;7.90;2.50;;;;;;;;;;4966984;28;20824;-84
2022/06/10 13:18:05;;;;;;;5.10;3.07;;;;;;;;;;4977493;28;20493;-85
2022/06/10 13:20:38;;;;;;;5.30;2.93;;;;;;;;;;4966584;28;20420;-84
2022/06/10 13:23:09;;;;;;;4.70;2.60;;;;;;;;;;4961239;29;20766;-84
2022/06/10 13:25:35;;;;;;;7.40;2.83;;;;;;;;;;4964103;28;20460;-85
2022/06/10 13:28:01;;;;;;;5.00;2.70;;;;;;;;;;4969706;28;20465;-85
2022/06/10 13:30:27;;;;;;;4.23;2.93;;;;;;;;;;4965218;28;20409;-86
2022/06/10 13:32:59;;;;;;;3.30;2.90;;;;;;;;;;4965237;29;20445;-85
2022/06/10 13:35:29;;;;;;;3.80;2.77;;;;;;;;;;4956257;28;20450;-83
2022/06/10 13:37:58;;;;;;;7.33;2.93;;;;;;;;;;4985529;28;20408;-86
2022/06/10 13:40:26;;;;;;;4.67;2.67;;;;;;;;;;4969619;28;20857;-85
2022/06/10 13:42:58;;;;;;;6.60;4.10;;;;;;;;;;4965623;28;20429;-86
2022/06/10 13:45:28;;;;;;;3.77;2.90;;;;;;;;;;4962345;28;20453;-86
2022/06/10 13:48:02;;;;;;;4.20;2.50;;;;;;;;;;4961152;29;20876;-85
2022/06/10 13:53:04;;;;;;;4.43;3.20;;;;;;;;;;4980365;28;20431;-85
2022/06/10 13:55:32;;;;;;;4.60;2.77;;;;;;;;;;4971307;28;20794;-85
2022/06/10 13:58:00;;;;;;;4.23;2.60;;;;;;;;;;4977942;28;20425;-84
2022/06/10 14:00:28;;;;;;;5.70;3.07;;;;;;;;;;4966921;28;20426;-84
2022/06/10 14:02:54;;;;;;;6.60;2.83;;;;;;;;;;4943120;29;20413;-83
2022/06/10 14:05:22;;;;;;;7.77;3.23;;;;;;;;;;4960222;28;20480;-85
2022/06/10 14:07:49;;;;;;;5.13;2.70;;;;;;;;;;4973217;28;20465;-85
2022/06/10 14:10:26;;;;;;;4.47;2.77;;;;;;;;;;4979750;28;20417;-84
2022/06/10 14:12:54;;;;;;;3.13;2.80;;;;;;;;;;4987186;28;20417;-84
2022/06/10 14:15:23;;;;;;;3.33;2.70;;;;;;;;;;4984548;28;20840;-84
2022/06/10 14:17:53;;;;;;;9.47;2.83;;;;;;;;;;4977010;28;20421;-85
2022/06/10 14:20:20;;;;;;;4.00;2.93;;;;;;;;;;4980590;28;20810;-85
2022/06/10 14:22:47;;;;;;;4.53;2.73;;;;;;;;;;4979160;28;20918;-84
2022/06/10 14:25:13;;;;;;;6.10;3.37;;;;;;;;;;4967876;28;20453;-84
2022/06/10 14:27:43;;;;;;;4.50;2.83;;;;;;;;;;4970051;28;20489;-84
2022/06/10 14:30:30;;;;;;;4.80;2.90;;;;;;;;;;4971082;28;20417;-84
2022/06/10 14:33:01;;;;;;;6.53;3.27;;;;;;;;;;4971436;28;20433;-84
2022/06/10 14:35:27;;;;;;;4.70;3.07;;;;;;;;;;4970261;28;20434;-85
2022/06/10 14:38:18;;;;;;;5.10;3.50;;;;;;;;;;4971026;29;20898;-85
2022/06/10 14:40:53;;;;;;;4.77;3.10;;;;;;;;;;4967829;28;20434;-84
2022/06/10 14:43:23;;;;;;;4.87;3.10;;;;;;;;;;4968281;28;20759;-83
2022/06/10 14:46:08;;;;;;;4.27;3.20;;;;;;;;;;4984641;28;20444;-84
2022/06/10 14:48:41;;;;;;;5.30;3.30;;;;;;;;;;4981684;28;20541;-84
2022/06/10 14:51:08;;;;;;;5.30;3.23;;;;;;;;;;4955309;29;20477;-84
2022/06/10 14:53:35;;;;;;;4.23;2.70;;;;;;;;;;4975830;28;20465;-85
2022/06/10 14:56:03;;;;;;;4.13;2.47;;;;;;;;;;4976404;29;20453;-83
2022/06/10 14:58:30;;;;;;;3.60;2.80;;;;;;;;;;4978245;28;20418;-83
2022/06/10 15:00:57;;;;;;;4.00;2.70;;;;;;;;;;4966854;28;20485;-83
2022/06/10 15:03:24;;;;;;;3.70;2.90;;;;;;;;;;4975274;28;20886;-87
2022/06/10 15:06:15;;;;;;;3.80;2.83;;;;;;;;;;4971599;28;20468;-86
2022/06/10 15:08:46;;;;;;;4.10;2.43;;;;;;;;;;4959763;28;20450;-85
2022/06/10 15:11:13;;;;;;;4.53;2.40;;;;;;;;;;4966236;28;20438;-85
2022/06/10 15:13:42;;;;;;;4.60;2.67;;;;;;;;;;4969173;28;21028;-85